sensor_id;sensor_type;location;lat;lon;timestamp;P1;durP1;ratioP1;P2;durP2;ratioP2
12171;SDS011;6149;52.418;13.668;2023-05-29T00:02:00;9.67;;;4.97;;
12171;SDS011;6149;52.418;13.668;2023-05-29T00:04:27;10.47;;;4.70;;
12171;SDS011;6149;52.418;13.668;2023-05-29T00:06:54;7.53;;;4.77;;
12171;SDS011;6149;52.418;13.668;2023-05-29T00:09:20;7.60;;;4.73;;
12171;SDS011;6149;52.418;13.668;2023-05-29T00:11:47;8.63;;;5.23;;
12171;SDS011;6149;52.418;13.668;2023-05-29T00:14:19;8.07;;;4.73;;
12171;SDS011;6149;52.418;13.668;2023-05-29T00:16:47;8.70;;;4.57;;
12171;SDS011;6149;52.418;13.668;2023-05-29T00:19:15;7.40;;;4.50;;
12171;SDS011;6149;52.418;13.668;2023-05-29T00:21:42;9.73;;;5.37;;
12171;SDS011;6149;52.418;13.668;2023-05-29T00:24:12;10.53;;;5.23;;
12171;SDS011;6149;52.418;13.668;2023-05-29T00:26:39;9.80;;;4.97;;
12171;SDS011;6149;52.418;13.668;2023-05-29T00:29:07;7.63;;;4.93;;
12171;SDS011;6149;52.418;13.668;2023-05-29T00:31:36;12.30;;;5.40;;
12171;SDS011;6149;52.418;13.668;2023-05-29T00:34:04;10.07;;;5.03;;
12171;SDS011;6149;52.418;13.668;2023-05-29T00:36:32;7.20;;;5.03;;
12171;SDS011;6149;52.418;13.668;2023-05-29T00:39:01;8.70;;;4.90;;
12171;SDS011;6149;52.418;13.668;2023-05-29T00:41:31;10.17;;;5.27;;
12171;SDS011;6149;52.418;13.668;2023-05-29T00:43:58;10.07;;;4.77;;
12171;SDS011;6149;52.418;13.668;2023-05-29T00:46:25;8.17;;;5.23;;
12171;SDS011;6149;52.418;13.668;2023-05-29T00:48:54;11.27;;;5.50;;
12171;SDS011;6149;52.418;13.668;2023-05-29T00:51:20;9.10;;;5.30;;
12171;SDS011;6149;52.418;13.668;2023-05-29T00:53:48;8.87;;;5.17;;
12171;SDS011;6149;52.418;13.668;2023-05-29T00:56:16;9.90;;;5.37;;
12171;SDS011;6149;52.418;13.668;2023-05-29T00:58:47;9.13;;;5.20;;
12171;SDS011;6149;52.418;13.668;2023-05-29T01:01:15;9.17;;;4.83;;
12171;SDS011;6149;52.418;13.668;2023-05-29T01:03:43;8.93;;;4.87;;
12171;SDS011;6149;52.418;13.668;2023-05-29T01:06:12;9.80;;;4.70;;
12171;SDS011;6149;52.418;13.668;2023-05-29T01:08:40;10.00;;;5.63;;
12171;SDS011;6149;52.418;13.668;2023-05-29T01:11:08;6.90;;;5.03;;
12171;SDS011;6149;52.418;13.668;2023-05-29T01:13:44;11.10;;;5.53;;
12171;SDS011;6149;52.418;13.668;2023-05-29T01:16:12;7.40;;;5.50;;
12171;SDS011;6149;52.418;13.668;2023-05-29T01:18:50;8.93;;;4.87;;
12171;SDS011;6149;52.418;13.668;2023-05-29T01:21:29;12.93;;;5.60;;
12171;SDS011;6149;52.418;13.668;2023-05-29T01:24:19;10.87;;;5.23;;
12171;SDS011;6149;52.418;13.668;2023-05-29T01:26:55;8.93;;;5.20;;
12171;SDS011;6149;52.418;13.668;2023-05-29T01:29:25;9.23;;;5.40;;
12171;SDS011;6149;52.418;13.668;2023-05-29T01:31:56;10.63;;;5.77;;
12171;SDS011;6149;52.418;13.668;2023-05-29T01:34:24;9.13;;;5.63;;
12171;SDS011;6149;52.418;13.668;2023-05-29T01:36:52;10.77;;;5.57;;
12171;SDS011;6149;52.418;13.668;2023-05-29T01:39:19;11.33;;;5.83;;
12171;SDS011;6149;52.418;13.668;2023-05-29T01:41:46;11.10;;;5.03;;
12171;SDS011;6149;52.418;13.668;2023-05-29T01:44:14;11.40;;;5.33;;
12171;SDS011;6149;52.418;13.668;2023-05-29T01:46:43;10.07;;;5.43;;
12171;SDS011;6149;52.418;13.668;2023-05-29T01:49:10;9.10;;;5.20;;
12171;SDS011;6149;52.418;13.668;2023-05-29T01:51:39;8.30;;;5.50;;
12171;SDS011;6149;52.418;13.668;2023-05-29T01:54:08;9.37;;;5.17;;
12171;SDS011;6149;52.418;13.668;2023-05-29T01:56:38;8.87;;;5.63;;
12171;SDS011;6149;52.418;13.668;2023-05-29T01:59:05;8.97;;;5.33;;
12171;SDS011;6149;52.418;13.668;2023-05-29T02:01:39;10.73;;;5.53;;
12171;SDS011;6149;52.418;13.668;2023-05-29T02:04:07;9.93;;;5.17;;
12171;SDS011;6149;52.418;13.668;2023-05-29T02:06:35;10.23;;;5.67;;
12171;SDS011;6149;52.418;13.668;2023-05-29T02:09:05;8.57;;;4.83;;
12171;SDS011;6149;52.418;13.668;2023-05-29T02:11:33;9.23;;;5.03;;
12171;SDS011;6149;52.418;13.668;2023-05-29T02:14:01;9.63;;;5.90;;
12171;SDS011;6149;52.418;13.668;2023-05-29T02:16:31;9.27;;;5.17;;
12171;SDS011;6149;52.418;13.668;2023-05-29T02:19:02;7.83;;;4.87;;
12171;SDS011;6149;52.418;13.668;2023-05-29T02:21:30;10.17;;;5.03;;
12171;SDS011;6149;52.418;13.668;2023-05-29T02:23:58;10.87;;;5.00;;
12171;SDS011;6149;52.418;13.668;2023-05-29T02:26:25;13.87;;;5.60;;
12171;SDS011;6149;52.418;13.668;2023-05-29T02:28:51;10.87;;;5.63;;
12171;SDS011;6149;52.418;13.668;2023-05-29T02:31:19;8.47;;;5.20;;
12171;SDS011;6149;52.418;13.668;2023-05-29T02:33:45;10.70;;;5.70;;
12171;SDS011;6149;52.418;13.668;2023-05-29T02:36:13;11.17;;;5.57;;
12171;SDS011;6149;52.418;13.668;2023-05-29T02:38:41;10.50;;;6.03;;
12171;SDS011;6149;52.418;13.668;2023-05-29T02:41:08;10.50;;;5.70;;
12171;SDS011;6149;52.418;13.668;2023-05-29T02:43:35;9.23;;;5.67;;
12171;SDS011;6149;52.418;13.668;2023-05-29T02:46:02;8.53;;;5.37;;
12171;SDS011;6149;52.418;13.668;2023-05-29T02:48:31;11.90;;;4.97;;
12171;SDS011;6149;52.418;13.668;2023-05-29T02:50:58;9.40;;;5.37;;
12171;SDS011;6149;52.418;13.668;2023-05-29T02:53:26;8.63;;;4.83;;
12171;SDS011;6149;52.418;13.668;2023-05-29T02:55:52;11.47;;;5.90;;
12171;SDS011;6149;52.418;13.668;2023-05-29T02:58:20;12.70;;;5.83;;
12171;SDS011;6149;52.418;13.668;2023-05-29T03:00:48;9.30;;;5.13;;
12171;SDS011;6149;52.418;13.668;2023-05-29T03:03:15;9.43;;;5.00;;
12171;SDS011;6149;52.418;13.668;2023-05-29T03:05:42;14.80;;;5.80;;
12171;SDS011;6149;52.418;13.668;2023-05-29T03:08:09;9.00;;;5.20;;
12171;SDS011;6149;52.418;13.668;2023-05-29T03:10:38;9.10;;;4.90;;
12171;SDS011;6149;52.418;13.668;2023-05-29T03:13:06;8.93;;;4.87;;
12171;SDS011;6149;52.418;13.668;2023-05-29T03:15:33;12.00;;;5.90;;
12171;SDS011;6149;52.418;13.668;2023-05-29T03:18:02;9.63;;;5.17;;
12171;SDS011;6149;52.418;13.668;2023-05-29T03:20:31;12.27;;;5.40;;
12171;SDS011;6149;52.418;13.668;2023-05-29T03:22:58;7.93;;;4.90;;
12171;SDS011;6149;52.418;13.668;2023-05-29T03:25:24;7.37;;;4.83;;
12171;SDS011;6149;52.418;13.668;2023-05-29T03:27:52;10.20;;;5.13;;
12171;SDS011;6149;52.418;13.668;2023-05-29T03:30:19;10.13;;;5.20;;
12171;SDS011;6149;52.418;13.668;2023-05-29T03:32:48;8.83;;;4.73;;
12171;SDS011;6149;52.418;13.668;2023-05-29T03:35:16;9.70;;;5.27;;
12171;SDS011;6149;52.418;13.668;2023-05-29T03:37:43;10.97;;;5.30;;
12171;SDS011;6149;52.418;13.668;2023-05-29T03:40:10;8.23;;;5.07;;
12171;SDS011;6149;52.418;13.668;2023-05-29T03:42:38;9.03;;;4.77;;
12171;SDS011;6149;52.418;13.668;2023-05-29T03:45:07;9.97;;;5.50;;
12171;SDS011;6149;52.418;13.668;2023-05-29T03:47:35;9.57;;;5.03;;
12171;SDS011;6149;52.418;13.668;2023-05-29T03:50:05;7.10;;;4.80;;
12171;SDS011;6149;52.418;13.668;2023-05-29T03:52:39;10.17;;;5.23;;
12171;SDS011;6149;52.418;13.668;2023-05-29T03:55:08;9.50;;;5.30;;
12171;SDS011;6149;52.418;13.668;2023-05-29T03:57:38;10.57;;;5.03;;
12171;SDS011;6149;52.418;13.668;2023-05-29T04:00:11;10.03;;;5.20;;
12171;SDS011;6149;52.418;13.668;2023-05-29T04:02:39;10.07;;;5.33;;
12171;SDS011;6149;52.418;13.668;2023-05-29T04:05:08;10.40;;;4.97;;
12171;SDS011;6149;52.418;13.668;2023-05-29T04:07:35;11.53;;;5.77;;
12171;SDS011;6149;52.418;13.668;2023-05-29T04:10:03;11.20;;;5.70;;
12171;SDS011;6149;52.418;13.668;2023-05-29T04:12:35;7.10;;;4.67;;
12171;SDS011;6149;52.418;13.668;2023-05-29T04:15:02;11.70;;;5.63;;
12171;SDS011;6149;52.418;13.668;2023-05-29T04:17:31;8.17;;;4.93;;
12171;SDS011;6149;52.418;13.668;2023-05-29T04:20:00;8.10;;;4.57;;
12171;SDS011;6149;52.418;13.668;2023-05-29T04:22:33;9.30;;;5.07;;
12171;SDS011;6149;52.418;13.668;2023-05-29T04:25:01;11.27;;;5.10;;
12171;SDS011;6149;52.418;13.668;2023-05-29T04:27:28;11.57;;;5.00;;
12171;SDS011;6149;52.418;13.668;2023-05-29T04:29:58;10.97;;;5.37;;
12171;SDS011;6149;52.418;13.668;2023-05-29T04:32:25;10.33;;;5.00;;
12171;SDS011;6149;52.418;13.668;2023-05-29T04:34:54;7.30;;;4.30;;
12171;SDS011;6149;52.418;13.668;2023-05-29T04:37:21;7.73;;;4.90;;
12171;SDS011;6149;52.418;13.668;2023-05-29T04:39:55;9.47;;;4.90;;
12171;SDS011;6149;52.418;13.668;2023-05-29T04:42:22;8.70;;;4.80;;
12171;SDS011;6149;52.418;13.668;2023-05-29T04:44:49;9.10;;;4.30;;
12171;SDS011;6149;52.418;13.668;2023-05-29T04:47:18;7.27;;;4.70;;
12171;SDS011;6149;52.418;13.668;2023-05-29T04:49:45;9.43;;;4.60;;
12171;SDS011;6149;52.418;13.668;2023-05-29T04:52:16;7.53;;;4.37;;
12171;SDS011;6149;52.418;13.668;2023-05-29T04:54:43;10.60;;;4.47;;
12171;SDS011;6149;52.418;13.668;2023-05-29T04:57:09;9.07;;;4.40;;
12171;SDS011;6149;52.418;13.668;2023-05-29T04:59:37;5.93;;;4.00;;
12171;SDS011;6149;52.418;13.668;2023-05-29T05:02:04;7.30;;;4.17;;
12171;SDS011;6149;52.418;13.668;2023-05-29T05:04:33;6.60;;;4.47;;
12171;SDS011;6149;52.418;13.668;2023-05-29T05:07:08;9.20;;;3.90;;
12171;SDS011;6149;52.418;13.668;2023-05-29T05:09:37;7.17;;;4.00;;
12171;SDS011;6149;52.418;13.668;2023-05-29T05:12:07;6.90;;;4.23;;
12171;SDS011;6149;52.418;13.668;2023-05-29T05:14:35;5.70;;;3.60;;
12171;SDS011;6149;52.418;13.668;2023-05-29T05:17:04;6.43;;;4.00;;
12171;SDS011;6149;52.418;13.668;2023-05-29T05:19:35;6.43;;;3.77;;
12171;SDS011;6149;52.418;13.668;2023-05-29T05:22:05;7.23;;;3.63;;
12171;SDS011;6149;52.418;13.668;2023-05-29T05:24:39;6.00;;;3.80;;
12171;SDS011;6149;52.418;13.668;2023-05-29T05:27:06;6.70;;;3.77;;
12171;SDS011;6149;52.418;13.668;2023-05-29T05:29:35;5.70;;;3.80;;
12171;SDS011;6149;52.418;13.668;2023-05-29T05:32:05;7.50;;;3.63;;
12171;SDS011;6149;52.418;13.668;2023-05-29T05:34:32;8.47;;;3.70;;
12171;SDS011;6149;52.418;13.668;2023-05-29T05:37:01;5.07;;;3.00;;
12171;SDS011;6149;52.418;13.668;2023-05-29T05:39:28;5.57;;;2.93;;
12171;SDS011;6149;52.418;13.668;2023-05-29T05:42:02;6.30;;;3.20;;
12171;SDS011;6149;52.418;13.668;2023-05-29T05:44:31;4.53;;;3.43;;
12171;SDS011;6149;52.418;13.668;2023-05-29T05:47:00;5.07;;;3.00;;
12171;SDS011;6149;52.418;13.668;2023-05-29T05:49:27;6.73;;;3.50;;
12171;SDS011;6149;52.418;13.668;2023-05-29T05:51:54;6.00;;;3.43;;
12171;SDS011;6149;52.418;13.668;2023-05-29T05:54:22;4.53;;;2.70;;
12171;SDS011;6149;52.418;13.668;2023-05-29T05:56:48;7.20;;;3.27;;
12171;SDS011;6149;52.418;13.668;2023-05-29T05:59:16;4.53;;;3.10;;
12171;SDS011;6149;52.418;13.668;2023-05-29T06:01:43;4.33;;;2.60;;
12171;SDS011;6149;52.418;13.668;2023-05-29T06:04:09;5.23;;;3.07;;
12171;SDS011;6149;52.418;13.668;2023-05-29T06:06:37;6.90;;;3.00;;
12171;SDS011;6149;52.418;13.668;2023-05-29T06:09:04;4.53;;;2.83;;
12171;SDS011;6149;52.418;13.668;2023-05-29T06:11:31;5.83;;;3.27;;
12171;SDS011;6149;52.418;13.668;2023-05-29T06:13:57;4.53;;;2.80;;
12171;SDS011;6149;52.418;13.668;2023-05-29T06:16:26;4.90;;;2.83;;
12171;SDS011;6149;52.418;13.668;2023-05-29T06:18:52;3.40;;;2.60;;
12171;SDS011;6149;52.418;13.668;2023-05-29T06:21:21;5.10;;;2.77;;
12171;SDS011;6149;52.418;13.668;2023-05-29T06:23:48;3.37;;;2.67;;
12171;SDS011;6149;52.418;13.668;2023-05-29T06:26:16;4.50;;;3.00;;
12171;SDS011;6149;52.418;13.668;2023-05-29T06:28:42;3.93;;;2.40;;
12171;SDS011;6149;52.418;13.668;2023-05-29T06:31:10;5.20;;;2.50;;
12171;SDS011;6149;52.418;13.668;2023-05-29T06:33:38;4.67;;;2.43;;
12171;SDS011;6149;52.418;13.668;2023-05-29T06:36:06;2.60;;;2.40;;
12171;SDS011;6149;52.418;13.668;2023-05-29T06:38:35;3.43;;;2.17;;
12171;SDS011;6149;52.418;13.668;2023-05-29T06:41:03;4.20;;;2.10;;
12171;SDS011;6149;52.418;13.668;2023-05-29T06:43:32;3.10;;;2.20;;
12171;SDS011;6149;52.418;13.668;2023-05-29T06:46:00;4.97;;;2.20;;
12171;SDS011;6149;52.418;13.668;2023-05-29T06:48:26;3.97;;;2.30;;
12171;SDS011;6149;52.418;13.668;2023-05-29T06:50:54;6.37;;;2.33;;
12171;SDS011;6149;52.418;13.668;2023-05-29T06:53:21;3.80;;;2.03;;
12171;SDS011;6149;52.418;13.668;2023-05-29T06:55:48;2.90;;;2.23;;
12171;SDS011;6149;52.418;13.668;2023-05-29T06:58:15;3.63;;;2.50;;
12171;SDS011;6149;52.418;13.668;2023-05-29T07:00:41;3.93;;;2.10;;
12171;SDS011;6149;52.418;13.668;2023-05-29T07:03:08;3.97;;;2.50;;
12171;SDS011;6149;52.418;13.668;2023-05-29T07:05:36;3.43;;;2.10;;
12171;SDS011;6149;52.418;13.668;2023-05-29T07:08:09;3.23;;;2.20;;
12171;SDS011;6149;52.418;13.668;2023-05-29T07:10:37;3.07;;;2.30;;
12171;SDS011;6149;52.418;13.668;2023-05-29T07:13:05;3.33;;;2.33;;
12171;SDS011;6149;52.418;13.668;2023-05-29T07:15:34;3.90;;;2.30;;
12171;SDS011;6149;52.418;13.668;2023-05-29T07:18:04;3.60;;;2.33;;
12171;SDS011;6149;52.418;13.668;2023-05-29T07:20:32;4.90;;;2.40;;
12171;SDS011;6149;52.418;13.668;2023-05-29T07:22:59;2.60;;;2.10;;
12171;SDS011;6149;52.418;13.668;2023-05-29T07:25:27;2.93;;;2.00;;
12171;SDS011;6149;52.418;13.668;2023-05-29T07:27:54;3.73;;;2.27;;
12171;SDS011;6149;52.418;13.668;2023-05-29T07:30:20;2.50;;;2.00;;
12171;SDS011;6149;52.418;13.668;2023-05-29T07:32:47;3.33;;;2.13;;
12171;SDS011;6149;52.418;13.668;2023-05-29T07:35:15;2.30;;;2.10;;
12171;SDS011;6149;52.418;13.668;2023-05-29T07:37:41;2.47;;;2.10;;
12171;SDS011;6149;52.418;13.668;2023-05-29T07:40:09;3.27;;;2.23;;
12171;SDS011;6149;52.418;13.668;2023-05-29T07:42:43;3.73;;;2.30;;
12171;SDS011;6149;52.418;13.668;2023-05-29T07:45:09;3.50;;;2.20;;
12171;SDS011;6149;52.418;13.668;2023-05-29T07:47:37;3.87;;;2.30;;
12171;SDS011;6149;52.418;13.668;2023-05-29T07:50:04;2.70;;;2.17;;
12171;SDS011;6149;52.418;13.668;2023-05-29T07:52:35;5.60;;;2.30;;
12171;SDS011;6149;52.418;13.668;2023-05-29T07:55:04;2.40;;;2.20;;
12171;SDS011;6149;52.418;13.668;2023-05-29T07:57:33;3.37;;;2.30;;
12171;SDS011;6149;52.418;13.668;2023-05-29T08:00:04;3.87;;;2.10;;
12171;SDS011;6149;52.418;13.668;2023-05-29T08:02:40;2.70;;;2.10;;
12171;SDS011;6149;52.418;13.668;2023-05-29T08:05:08;5.80;;;2.43;;
12171;SDS011;6149;52.418;13.668;2023-05-29T08:07:37;2.57;;;2.00;;
12171;SDS011;6149;52.418;13.668;2023-05-29T08:10:04;5.57;;;2.27;;
12171;SDS011;6149;52.418;13.668;2023-05-29T08:12:40;4.73;;;2.20;;
12171;SDS011;6149;52.418;13.668;2023-05-29T08:15:13;3.40;;;2.37;;
12171;SDS011;6149;52.418;13.668;2023-05-29T08:17:41;4.97;;;2.67;;
12171;SDS011;6149;52.418;13.668;2023-05-29T08:20:10;3.77;;;2.10;;
12171;SDS011;6149;52.418;13.668;2023-05-29T08:22:38;3.70;;;2.30;;
12171;SDS011;6149;52.418;13.668;2023-05-29T08:25:05;2.90;;;2.37;;
12171;SDS011;6149;52.418;13.668;2023-05-29T08:27:34;4.67;;;2.50;;
12171;SDS011;6149;52.418;13.668;2023-05-29T08:30:02;4.30;;;2.30;;
12171;SDS011;6149;52.418;13.668;2023-05-29T08:32:43;4.50;;;2.30;;
12171;SDS011;6149;52.418;13.668;2023-05-29T08:35:10;3.20;;;2.53;;
12171;SDS011;6149;52.418;13.668;2023-05-29T08:37:37;3.03;;;2.10;;
12171;SDS011;6149;52.418;13.668;2023-05-29T08:40:06;4.07;;;2.50;;
12171;SDS011;6149;52.418;13.668;2023-05-29T08:42:39;2.97;;;2.67;;
12171;SDS011;6149;52.418;13.668;2023-05-29T08:45:15;3.33;;;2.70;;
12171;SDS011;6149;52.418;13.668;2023-05-29T08:47:46;2.20;;;2.00;;
12171;SDS011;6149;52.418;13.668;2023-05-29T08:50:18;3.67;;;2.80;;
12171;SDS011;6149;52.418;13.668;2023-05-29T08:52:46;4.30;;;2.50;;
12171;SDS011;6149;52.418;13.668;2023-05-29T08:55:13;3.50;;;2.30;;
12171;SDS011;6149;52.418;13.668;2023-05-29T08:57:40;4.07;;;2.90;;
12171;SDS011;6149;52.418;13.668;2023-05-29T09:00:09;5.47;;;2.80;;
12171;SDS011;6149;52.418;13.668;2023-05-29T09:02:38;4.60;;;2.83;;
12171;SDS011;6149;52.418;13.668;2023-05-29T09:05:07;6.33;;;2.73;;
12171;SDS011;6149;52.418;13.668;2023-05-29T09:07:36;3.40;;;2.67;;
12171;SDS011;6149;52.418;13.668;2023-05-29T09:10:04;4.20;;;2.60;;
12171;SDS011;6149;52.418;13.668;2023-05-29T09:12:33;3.93;;;2.40;;
12171;SDS011;6149;52.418;13.668;2023-05-29T09:15:00;4.37;;;2.50;;
12171;SDS011;6149;52.418;13.668;2023-05-29T09:17:30;4.37;;;2.70;;
12171;SDS011;6149;52.418;13.668;2023-05-29T09:19:59;3.87;;;2.33;;
12171;SDS011;6149;52.418;13.668;2023-05-29T09:22:27;3.27;;;2.70;;
12171;SDS011;6149;52.418;13.668;2023-05-29T09:24:53;3.30;;;2.63;;
12171;SDS011;6149;52.418;13.668;2023-05-29T09:27:20;5.70;;;3.03;;
12171;SDS011;6149;52.418;13.668;2023-05-29T09:29:48;6.80;;;2.57;;
12171;SDS011;6149;52.418;13.668;2023-05-29T09:32:16;3.60;;;2.70;;
12171;SDS011;6149;52.418;13.668;2023-05-29T09:34:45;6.73;;;3.13;;
12171;SDS011;6149;52.418;13.668;2023-05-29T09:37:13;5.90;;;2.50;;
12171;SDS011;6149;52.418;13.668;2023-05-29T09:39:45;4.67;;;2.67;;
12171;SDS011;6149;52.418;13.668;2023-05-29T09:42:14;4.67;;;2.87;;
12171;SDS011;6149;52.418;13.668;2023-05-29T09:44:42;3.53;;;2.97;;
12171;SDS011;6149;52.418;13.668;2023-05-29T09:47:13;5.20;;;3.03;;
12171;SDS011;6149;52.418;13.668;2023-05-29T09:49:41;4.07;;;3.20;;
12171;SDS011;6149;52.418;13.668;2023-05-29T09:52:10;3.77;;;2.60;;
12171;SDS011;6149;52.418;13.668;2023-05-29T09:54:40;5.10;;;3.10;;
12171;SDS011;6149;52.418;13.668;2023-05-29T09:57:11;4.73;;;2.83;;
12171;SDS011;6149;52.418;13.668;2023-05-29T09:59:40;4.93;;;3.40;;
12171;SDS011;6149;52.418;13.668;2023-05-29T10:02:09;4.90;;;2.93;;
12171;SDS011;6149;52.418;13.668;2023-05-29T10:04:38;4.30;;;3.10;;
12171;SDS011;6149;52.418;13.668;2023-05-29T10:07:12;4.60;;;3.50;;
12171;SDS011;6149;52.418;13.668;2023-05-29T10:09:50;5.70;;;3.07;;
12171;SDS011;6149;52.418;13.668;2023-05-29T10:12:22;5.47;;;3.10;;
12171;SDS011;6149;52.418;13.668;2023-05-29T10:14:51;4.37;;;2.90;;
12171;SDS011;6149;52.418;13.668;2023-05-29T10:17:25;4.17;;;3.20;;
12171;SDS011;6149;52.418;13.668;2023-05-29T10:19:58;4.83;;;3.00;;
12171;SDS011;6149;52.418;13.668;2023-05-29T10:22:28;4.37;;;3.10;;
12171;SDS011;6149;52.418;13.668;2023-05-29T10:24:59;5.77;;;3.20;;
12171;SDS011;6149;52.418;13.668;2023-05-29T10:27:27;4.10;;;3.40;;
12171;SDS011;6149;52.418;13.668;2023-05-29T10:29:55;4.60;;;3.10;;
12171;SDS011;6149;52.418;13.668;2023-05-29T10:32:36;5.73;;;3.33;;
12171;SDS011;6149;52.418;13.668;2023-05-29T10:35:11;5.57;;;3.40;;
12171;SDS011;6149;52.418;13.668;2023-05-29T10:37:44;4.60;;;2.73;;
12171;SDS011;6149;52.418;13.668;2023-05-29T10:40:15;5.97;;;3.17;;
12171;SDS011;6149;52.418;13.668;2023-05-29T10:42:52;6.77;;;3.10;;
12171;SDS011;6149;52.418;13.668;2023-05-29T10:51:08;4.63;;;2.90;;
12171;SDS011;6149;52.418;13.668;2023-05-29T10:53:51;3.93;;;3.00;;
12171;SDS011;6149;52.418;13.668;2023-05-29T10:56:20;4.43;;;2.80;;
12171;SDS011;6149;52.418;13.668;2023-05-29T10:58:57;4.23;;;2.70;;
12171;SDS011;6149;52.418;13.668;2023-05-29T11:01:28;5.27;;;3.30;;
12171;SDS011;6149;52.418;13.668;2023-05-29T11:06:53;3.53;;;2.90;;
12171;SDS011;6149;52.418;13.668;2023-05-29T11:09:26;3.37;;;2.70;;
12171;SDS011;6149;52.418;13.668;2023-05-29T11:12:13;5.30;;;2.90;;
12171;SDS011;6149;52.418;13.668;2023-05-29T11:15:02;3.50;;;2.90;;
12171;SDS011;6149;52.418;13.668;2023-05-29T11:17:44;4.13;;;2.60;;
12171;SDS011;6149;52.418;13.668;2023-05-29T11:20:26;5.83;;;2.73;;
12171;SDS011;6149;52.418;13.668;2023-05-29T11:23:06;3.87;;;2.60;;
12171;SDS011;6149;52.418;13.668;2023-05-29T11:25:35;5.37;;;2.60;;
12171;SDS011;6149;52.418;13.668;2023-05-29T11:28:04;3.67;;;3.17;;
12171;SDS011;6149;52.418;13.668;2023-05-29T11:30:48;3.40;;;2.70;;
12171;SDS011;6149;52.418;13.668;2023-05-29T11:33:24;4.57;;;2.63;;
12171;SDS011;6149;52.418;13.668;2023-05-29T11:35:55;3.93;;;2.80;;
12171;SDS011;6149;52.418;13.668;2023-05-29T11:38:24;4.27;;;2.60;;
12171;SDS011;6149;52.418;13.668;2023-05-29T11:40:51;3.60;;;2.70;;
12171;SDS011;6149;52.418;13.668;2023-05-29T11:43:21;3.20;;;2.50;;
12171;SDS011;6149;52.418;13.668;2023-05-29T11:45:49;4.67;;;2.83;;
12171;SDS011;6149;52.418;13.668;2023-05-29T11:48:16;4.07;;;2.87;;
12171;SDS011;6149;52.418;13.668;2023-05-29T11:50:42;2.93;;;2.50;;
12171;SDS011;6149;52.418;13.668;2023-05-29T11:53:10;3.30;;;2.70;;
12171;SDS011;6149;52.418;13.668;2023-05-29T11:55:39;5.20;;;2.77;;
12171;SDS011;6149;52.418;13.668;2023-05-29T11:58:05;3.03;;;2.67;;
12171;SDS011;6149;52.418;13.668;2023-05-29T12:00:37;3.93;;;2.70;;
12171;SDS011;6149;52.418;13.668;2023-05-29T12:03:08;3.53;;;2.67;;
12171;SDS011;6149;52.418;13.668;2023-05-29T12:05:43;3.37;;;3.07;;
12171;SDS011;6149;52.418;13.668;2023-05-29T12:08:13;3.63;;;2.70;;
12171;SDS011;6149;52.418;13.668;2023-05-29T12:10:46;3.10;;;2.80;;
12171;SDS011;6149;52.418;13.668;2023-05-29T12:13:13;3.83;;;2.90;;
12171;SDS011;6149;52.418;13.668;2023-05-29T12:15:42;5.63;;;3.20;;
12171;SDS011;6149;52.418;13.668;2023-05-29T12:18:14;4.33;;;3.03;;
12171;SDS011;6149;52.418;13.668;2023-05-29T12:20:41;4.40;;;2.70;;
12171;SDS011;6149;52.418;13.668;2023-05-29T12:23:08;3.80;;;2.90;;
12171;SDS011;6149;52.418;13.668;2023-05-29T12:25:38;3.10;;;2.80;;
12171;SDS011;6149;52.418;13.668;2023-05-29T12:28:08;3.93;;;3.00;;
12171;SDS011;6149;52.418;13.668;2023-05-29T12:30:41;4.43;;;2.57;;
12171;SDS011;6149;52.418;13.668;2023-05-29T12:33:09;3.73;;;2.90;;
12171;SDS011;6149;52.418;13.668;2023-05-29T12:35:45;4.53;;;3.00;;
12171;SDS011;6149;52.418;13.668;2023-05-29T12:38:12;3.97;;;2.77;;
12171;SDS011;6149;52.418;13.668;2023-05-29T12:40:40;3.20;;;2.80;;
12171;SDS011;6149;52.418;13.668;2023-05-29T12:43:10;4.90;;;2.70;;
12171;SDS011;6149;52.418;13.668;2023-05-29T12:45:39;6.73;;;2.87;;
12171;SDS011;6149;52.418;13.668;2023-05-29T12:48:06;3.63;;;2.83;;
12171;SDS011;6149;52.418;13.668;2023-05-29T12:50:37;4.50;;;2.60;;
12171;SDS011;6149;52.418;13.668;2023-05-29T12:53:10;4.23;;;3.10;;
12171;SDS011;6149;52.418;13.668;2023-05-29T12:55:39;3.37;;;2.60;;
12171;SDS011;6149;52.418;13.668;2023-05-29T12:58:10;3.50;;;2.90;;
12171;SDS011;6149;52.418;13.668;2023-05-29T13:00:41;6.30;;;3.17;;
12171;SDS011;6149;52.418;13.668;2023-05-29T13:03:12;3.47;;;3.03;;
12171;SDS011;6149;52.418;13.668;2023-05-29T13:05:41;3.93;;;2.70;;
12171;SDS011;6149;52.418;13.668;2023-05-29T13:08:08;3.13;;;2.80;;
12171;SDS011;6149;52.418;13.668;2023-05-29T13:10:37;3.83;;;2.90;;
12171;SDS011;6149;52.418;13.668;2023-05-29T13:13:04;5.40;;;3.20;;
12171;SDS011;6149;52.418;13.668;2023-05-29T13:15:31;5.03;;;3.00;;
12171;SDS011;6149;52.418;13.668;2023-05-29T13:17:59;4.40;;;2.93;;
12171;SDS011;6149;52.418;13.668;2023-05-29T13:20:26;3.87;;;2.80;;
12171;SDS011;6149;52.418;13.668;2023-05-29T13:22:56;6.60;;;3.00;;
12171;SDS011;6149;52.418;13.668;2023-05-29T13:25:24;4.50;;;3.03;;
12171;SDS011;6149;52.418;13.668;2023-05-29T13:27:52;7.50;;;3.00;;
12171;SDS011;6149;52.418;13.668;2023-05-29T13:30:20;4.33;;;3.03;;
12171;SDS011;6149;52.418;13.668;2023-05-29T13:32:48;3.73;;;2.93;;
12171;SDS011;6149;52.418;13.668;2023-05-29T13:35:16;3.43;;;2.70;;
12171;SDS011;6149;52.418;13.668;2023-05-29T13:37:42;3.37;;;2.80;;
12171;SDS011;6149;52.418;13.668;2023-05-29T13:40:14;3.27;;;2.67;;
12171;SDS011;6149;52.418;13.668;2023-05-29T13:42:40;3.27;;;2.67;;
12171;SDS011;6149;52.418;13.668;2023-05-29T13:45:09;5.10;;;2.93;;
12171;SDS011;6149;52.418;13.668;2023-05-29T13:47:38;5.43;;;2.97;;
12171;SDS011;6149;52.418;13.668;2023-05-29T13:50:08;3.90;;;2.63;;
12171;SDS011;6149;52.418;13.668;2023-05-29T13:52:36;4.73;;;2.87;;
12171;SDS011;6149;52.418;13.668;2023-05-29T13:55:05;3.90;;;2.93;;
12171;SDS011;6149;52.418;13.668;2023-05-29T13:57:42;5.90;;;2.97;;
12171;SDS011;6149;52.418;13.668;2023-05-29T14:00:12;5.63;;;3.10;;
12171;SDS011;6149;52.418;13.668;2023-05-29T14:02:40;14.03;;;3.70;;
12171;SDS011;6149;52.418;13.668;2023-05-29T14:05:10;5.10;;;3.10;;
12171;SDS011;6149;52.418;13.668;2023-05-29T14:07:40;4.07;;;2.87;;
12171;SDS011;6149;52.418;13.668;2023-05-29T14:10:09;5.33;;;2.80;;
12171;SDS011;6149;52.418;13.668;2023-05-29T14:12:52;3.63;;;2.67;;
12171;SDS011;6149;52.418;13.668;2023-05-29T14:15:18;3.50;;;2.70;;
12171;SDS011;6149;52.418;13.668;2023-05-29T14:17:45;5.30;;;3.10;;
12171;SDS011;6149;52.418;13.668;2023-05-29T14:20:13;3.80;;;2.80;;
12171;SDS011;6149;52.418;13.668;2023-05-29T14:22:41;7.10;;;3.07;;
12171;SDS011;6149;52.418;13.668;2023-05-29T14:25:08;2.90;;;2.50;;
12171;SDS011;6149;52.418;13.668;2023-05-29T14:27:36;3.97;;;2.80;;
12171;SDS011;6149;52.418;13.668;2023-05-29T14:30:04;4.87;;;3.00;;
12171;SDS011;6149;52.418;13.668;2023-05-29T14:32:32;4.47;;;2.87;;
12171;SDS011;6149;52.418;13.668;2023-05-29T14:35:00;6.10;;;2.73;;
12171;SDS011;6149;52.418;13.668;2023-05-29T14:37:27;4.40;;;2.43;;
12171;SDS011;6149;52.418;13.668;2023-05-29T14:39:54;4.50;;;2.73;;
12171;SDS011;6149;52.418;13.668;2023-05-29T14:42:21;5.33;;;3.30;;
12171;SDS011;6149;52.418;13.668;2023-05-29T14:44:48;6.67;;;3.10;;
12171;SDS011;6149;52.418;13.668;2023-05-29T14:47:17;5.20;;;2.83;;
12171;SDS011;6149;52.418;13.668;2023-05-29T14:49:44;6.33;;;2.73;;
12171;SDS011;6149;52.418;13.668;2023-05-29T14:52:13;5.90;;;2.80;;
12171;SDS011;6149;52.418;13.668;2023-05-29T14:54:40;4.43;;;2.70;;
12171;SDS011;6149;52.418;13.668;2023-05-29T14:57:08;4.40;;;2.53;;
12171;SDS011;6149;52.418;13.668;2023-05-29T14:59:35;6.37;;;2.87;;
12171;SDS011;6149;52.418;13.668;2023-05-29T15:02:02;4.27;;;2.87;;
12171;SDS011;6149;52.418;13.668;2023-05-29T15:04:32;6.43;;;2.70;;
12171;SDS011;6149;52.418;13.668;2023-05-29T15:06:58;4.87;;;3.07;;